sensor_id;sensor_type;location;lat;lon;timestamp;P1;durP1;ratioP1;P2;durP2;ratioP2
14939;SDS011;11825;51.898;8.202;2024-01-07T00:06:50;16.43;;;14.33;;
14939;SDS011;11825;51.898;8.202;2024-01-07T00:12:14;17.80;;;15.20;;
14939;SDS011;11825;51.898;8.202;2024-01-07T00:22:45;15.27;;;13.67;;
14939;SDS011;11825;51.898;8.202;2024-01-07T00:28:18;14.90;;;12.73;;
14939;SDS011;11825;51.898;8.202;2024-01-07T00:39:47;16.50;;;14.67;;
14939;SDS011;11825;51.898;8.202;2024-01-07T00:50:46;14.73;;;12.77;;
14939;SDS011;11825;51.898;8.202;2024-01-07T01:08:06;15.57;;;13.37;;
14939;SDS011;11825;51.898;8.202;2024-01-07T01:13:33;17.13;;;13.20;;
14939;SDS011;11825;51.898;8.202;2024-01-07T01:19:12;14.73;;;12.10;;
14939;SDS011;11825;51.898;8.202;2024-01-07T01:24:32;16.27;;;13.70;;
14939;SDS011;11825;51.898;8.202;2024-01-07T01:30:47;15.87;;;13.63;;
14939;SDS011;11825;51.898;8.202;2024-01-07T01:36:24;19.90;;;15.63;;
14939;SDS011;11825;51.898;8.202;2024-01-07T01:41:43;16.83;;;14.10;;
14939;SDS011;11825;51.898;8.202;2024-01-07T01:47:37;17.63;;;13.83;;
14939;SDS011;11825;51.898;8.202;2024-01-07T01:53:07;15.97;;;13.57;;
14939;SDS011;11825;51.898;8.202;2024-01-07T01:58:28;15.97;;;13.13;;
14939;SDS011;11825;51.898;8.202;2024-01-07T02:09:50;15.83;;;14.13;;
14939;SDS011;11825;51.898;8.202;2024-01-07T02:15:15;18.17;;;14.13;;
14939;SDS011;11825;51.898;8.202;2024-01-07T03:23:26;15.60;;;13.23;;
14939;SDS011;11825;51.898;8.202;2024-01-07T03:29:07;15.10;;;12.23;;
14939;SDS011;11825;51.898;8.202;2024-01-07T03:35:14;15.63;;;12.83;;
14939;SDS011;11825;51.898;8.202;2024-01-07T03:46:24;16.53;;;13.93;;
14939;SDS011;11825;51.898;8.202;2024-01-07T03:58:09;17.23;;;15.13;;
14939;SDS011;11825;51.898;8.202;2024-01-07T04:03:54;20.83;;;14.47;;
14939;SDS011;11825;51.898;8.202;2024-01-07T04:09:18;17.33;;;15.43;;
14939;SDS011;11825;51.898;8.202;2024-01-07T04:14:36;19.73;;;14.73;;
14939;SDS011;11825;51.898;8.202;2024-01-07T04:20:14;17.50;;;14.43;;
14939;SDS011;11825;51.898;8.202;2024-01-07T04:25:54;17.67;;;14.43;;
14939;SDS011;11825;51.898;8.202;2024-01-07T04:31:30;17.53;;;13.00;;
14939;SDS011;11825;51.898;8.202;2024-01-07T04:36:57;17.93;;;13.17;;
14939;SDS011;11825;51.898;8.202;2024-01-07T04:42:26;16.90;;;13.57;;
14939;SDS011;11825;51.898;8.202;2024-01-07T04:53:50;12.90;;;11.50;;
14939;SDS011;11825;51.898;8.202;2024-01-07T04:59:46;11.80;;;10.53;;
14939;SDS011;11825;51.898;8.202;2024-01-07T05:05:58;11.33;;;9.40;;
14939;SDS011;11825;51.898;8.202;2024-01-07T05:12:04;11.27;;;9.90;;
14939;SDS011;11825;51.898;8.202;2024-01-07T05:17:39;11.13;;;9.77;;
14939;SDS011;11825;51.898;8.202;2024-01-07T05:29:04;11.63;;;9.63;;
14939;SDS011;11825;51.898;8.202;2024-01-07T05:34:19;12.87;;;11.40;;
14939;SDS011;11825;51.898;8.202;2024-01-07T05:39:52;13.80;;;10.67;;
14939;SDS011;11825;51.898;8.202;2024-01-07T05:51:37;13.43;;;10.77;;
14939;SDS011;11825;51.898;8.202;2024-01-07T05:57:08;14.57;;;10.77;;
14939;SDS011;11825;51.898;8.202;2024-01-07T06:02:19;15.60;;;11.73;;
14939;SDS011;11825;51.898;8.202;2024-01-07T06:13:10;14.53;;;11.37;;
14939;SDS011;11825;51.898;8.202;2024-01-07T06:18:46;12.37;;;9.93;;
14939;SDS011;11825;51.898;8.202;2024-01-07T06:24:02;12.07;;;10.10;;
14939;SDS011;11825;51.898;8.202;2024-01-07T06:41:06;11.63;;;10.33;;
14939;SDS011;11825;51.898;8.202;2024-01-07T06:46:50;11.57;;;10.37;;
14939;SDS011;11825;51.898;8.202;2024-01-07T06:52:45;14.60;;;9.83;;
14939;SDS011;11825;51.898;8.202;2024-01-07T06:58:07;8.53;;;7.70;;
14939;SDS011;11825;51.898;8.202;2024-01-07T07:03:11;13.03;;;9.53;;
14939;SDS011;11825;51.898;8.202;2024-01-07T07:08:25;10.70;;;8.80;;
14939;SDS011;11825;51.898;8.202;2024-01-07T07:13:44;11.93;;;8.47;;
14939;SDS011;11825;51.898;8.202;2024-01-07T07:18:56;9.57;;;8.60;;
14939;SDS011;11825;51.898;8.202;2024-01-07T07:24:24;9.97;;;8.70;;
14939;SDS011;11825;51.898;8.202;2024-01-07T07:29:47;10.10;;;9.03;;
14939;SDS011;11825;51.898;8.202;2024-01-07T07:35:08;10.87;;;8.57;;
14939;SDS011;11825;51.898;8.202;2024-01-07T07:40:24;10.50;;;9.40;;
14939;SDS011;11825;51.898;8.202;2024-01-07T07:45:44;9.30;;;7.13;;
14939;SDS011;11825;51.898;8.202;2024-01-07T07:51:02;10.33;;;6.17;;
14939;SDS011;11825;51.898;8.202;2024-01-07T07:56:13;8.23;;;6.20;;
14939;SDS011;11825;51.898;8.202;2024-01-07T08:01:29;6.77;;;5.73;;
14939;SDS011;11825;51.898;8.202;2024-01-07T08:06:36;7.63;;;5.83;;
14939;SDS011;11825;51.898;8.202;2024-01-07T08:12:02;8.50;;;6.37;;
14939;SDS011;11825;51.898;8.202;2024-01-07T08:17:46;7.53;;;6.17;;
14939;SDS011;11825;51.898;8.202;2024-01-07T08:22:53;7.00;;;5.90;;
14939;SDS011;11825;51.898;8.202;2024-01-07T08:28:14;9.53;;;6.07;;
14939;SDS011;11825;51.898;8.202;2024-01-07T08:33:26;6.63;;;5.37;;
14939;SDS011;11825;51.898;8.202;2024-01-07T08:39:02;6.27;;;5.10;;
14939;SDS011;11825;51.898;8.202;2024-01-07T08:44:15;6.40;;;4.87;;
14939;SDS011;11825;51.898;8.202;2024-01-07T08:49:28;6.07;;;4.20;;
14939;SDS011;11825;51.898;8.202;2024-01-07T08:55:03;5.57;;;4.97;;
14939;SDS011;11825;51.898;8.202;2024-01-07T09:00:19;7.23;;;4.70;;
14939;SDS011;11825;51.898;8.202;2024-01-07T09:05:40;6.20;;;4.30;;
14939;SDS011;11825;51.898;8.202;2024-01-07T09:10:51;4.73;;;3.93;;
14939;SDS011;11825;51.898;8.202;2024-01-07T09:22:25;4.87;;;4.10;;
14939;SDS011;11825;51.898;8.202;2024-01-07T10:18:48;5.40;;;3.50;;
14939;SDS011;11825;51.898;8.202;2024-01-07T10:24:31;3.83;;;3.50;;
14939;SDS011;11825;51.898;8.202;2024-01-07T10:29:54;4.13;;;3.73;;
14939;SDS011;11825;51.898;8.202;2024-01-07T10:41:24;4.37;;;3.90;;
14939;SDS011;11825;51.898;8.202;2024-01-07T12:10:32;3.97;;;2.77;;
14939;SDS011;11825;51.898;8.202;2024-01-07T12:28:31;5.10;;;4.60;;
14939;SDS011;11825;51.898;8.202;2024-01-07T12:56:42;4.30;;;3.90;;
14939;SDS011;11825;51.898;8.202;2024-01-07T13:33:05;7.83;;;4.83;;
14939;SDS011;11825;51.898;8.202;2024-01-07T14:08:26;7.07;;;3.73;;
14939;SDS011;11825;51.898;8.202;2024-01-07T14:14:06;3.23;;;2.93;;
14939;SDS011;11825;51.898;8.202;2024-01-07T16:35:57;6.37;;;4.70;;
14939;SDS011;11825;51.898;8.202;2024-01-07T16:41:22;6.07;;;5.47;;
14939;SDS011;11825;51.898;8.202;2024-01-07T17:36:49;6.80;;;5.30;;
14939;SDS011;11825;51.898;8.202;2024-01-07T17:42:05;8.97;;;6.27;;
14939;SDS011;11825;51.898;8.202;2024-01-07T17:48:22;6.70;;;5.33;;
14939;SDS011;11825;51.898;8.202;2024-01-07T17:59:33;7.37;;;5.73;;
14939;SDS011;11825;51.898;8.202;2024-01-07T18:05:26;9.53;;;6.30;;
14939;SDS011;11825;51.898;8.202;2024-01-07T18:17:34;7.33;;;5.80;;
14939;SDS011;11825;51.898;8.202;2024-01-07T18:39:53;8.17;;;7.37;;
14939;SDS011;11825;51.898;8.202;2024-01-07T18:45:37;11.83;;;7.47;;
14939;SDS011;11825;51.898;8.202;2024-01-07T18:57:26;8.23;;;6.33;;
14939;SDS011;11825;51.898;8.202;2024-01-07T19:08:07;7.13;;;6.23;;
14939;SDS011;11825;51.898;8.202;2024-01-07T19:13:09;7.30;;;5.43;;
14939;SDS011;11825;51.898;8.202;2024-01-07T22:03:10;7.07;;;5.33;;
14939;SDS011;11825;51.898;8.202;2024-01-07T23:07:26;6.77;;;5.30;;
14939;SDS011;11825;51.898;8.202;2024-01-07T23:12:52;6.53;;;5.90;;
